Time;durP1;ratioP1;P1;durP2;ratioP2;P2;SDS_P1;SDS_P2;PMS_P1;PMS_P2;Temp;Humidity;BMP_temperature;BMP_pressure;BME280_temperature;BME280_humidity;BME280_pressure;Samples;Min_cycle;Max_cycle;Signal;HPM_P1;HPM_P2
2022/05/09 00:01:53;;;;;;;3.78;2.40;;;;;;;14.49;37.08;95351.44;4971681;28;20227;-71
2022/05/09 00:04:20;;;;;;;4.28;2.50;;;;;;;14.54;37.65;95350.97;4979651;28;20223;-72
2022/05/09 00:06:46;;;;;;;2.75;2.45;;;;;;;14.41;37.48;95350.66;4969757;28;20304;-72
2022/05/09 00:09:12;;;;;;;3.90;2.63;;;;;;;14.31;37.37;95338.41;4961142;28;20310;-71
2022/05/09 00:11:37;;;;;;;3.38;2.53;;;;;;;14.39;37.46;95349.97;4967991;28;20287;-70
2022/05/09 00:14:03;;;;;;;4.38;2.50;;;;;;;14.32;37.42;95339.22;4975860;28;20303;-73
2022/05/09 00:16:33;;;;;;;4.80;2.50;;;;;;;14.32;37.81;95352.44;4967449;28;20220;-73
2022/05/09 00:18:59;;;;;;;2.88;2.58;;;;;;;14.09;38.22;95349.66;4958801;28;20320;-73
2022/05/09 00:21:25;;;;;;;3.30;2.80;;;;;;;14.27;37.93;95355.63;4992744;28;20192;-72
2022/05/09 00:23:51;;;;;;;2.85;2.63;;;;;;;14.31;37.83;95354.28;4973221;28;20234;-72
2022/05/09 00:26:17;;;;;;;4.57;2.72;;;;;;;14.24;38.00;95352.44;4970353;28;20370;-72
2022/05/09 00:28:42;;;;;;;5.07;2.92;;;;;;;14.22;38.40;95351.78;4966815;28;20245;-74
2022/05/09 00:31:08;;;;;;;3.72;2.72;;;;;;;14.02;38.94;95349.47;4968306;28;20259;-75
2022/05/09 00:33:34;;;;;;;4.57;2.70;;;;;;;13.99;39.01;95359.56;4964593;28;20208;-74
2022/05/09 00:36:00;;;;;;;5.22;2.90;;;;;;;14.05;39.01;95361.53;4971454;28;20256;-75
2022/05/09 00:38:26;;;;;;;6.78;2.65;;;;;;;13.98;39.37;95358.75;4976907;28;20216;-76
2022/05/09 00:43:38;;;;;;;5.68;3.00;;;;;;;13.77;39.82;95364.50;4962329;28;20352;-73
2022/05/09 00:46:04;;;;;;;3.33;2.40;;;;;;;13.62;40.10;95368.75;4975467;28;20303;-76
2022/05/09 00:48:30;;;;;;;3.83;2.45;;;;;;;13.71;40.34;95364.31;4978227;28;20418;-76
2022/05/09 00:50:56;;;;;;;5.03;2.67;;;;;;;13.66;40.45;95359.53;4977485;28;20293;-74
2022/05/09 00:53:25;;;;;;;3.53;2.45;;;;;;;13.60;40.34;95370.72;4976837;28;20216;-74
2022/05/09 00:56:01;;;;;;;3.30;3.00;;;;;;;13.58;41.19;95370.91;4957293;28;20287;-74
2022/05/09 00:58:34;;;;;;;4.40;2.75;;;;;;;13.57;40.64;95363.94;4962195;28;20223;-74
2022/05/09 01:01:01;;;;;;;3.20;2.85;;;;;;;13.62;41.07;95372.22;4978962;28;20249;-76
2022/05/09 01:03:36;;;;;;;3.30;3.00;;;;;;;13.65;40.51;95366.59;4984598;28;20211;-74
2022/05/09 01:06:01;;;;;;;5.95;3.58;;;;;;;13.61;40.60;95367.13;4985201;28;20208;-74
2022/05/09 01:08:27;;;;;;;4.10;3.10;;;;;;;13.45;41.52;95367.91;4971100;28;20231;-74
2022/05/09 01:10:54;;;;;;;4.55;3.42;;;;;;;13.38;41.39;95369.53;4973058;28;20230;-73
2022/05/09 01:13:23;;;;;;;4.38;3.20;;;;;;;13.45;41.32;95370.53;4969575;28;20219;-73
2022/05/09 01:15:53;;;;;;;3.72;3.28;;;;;;;13.41;41.42;95374.47;4961392;28;20232;-73
2022/05/09 01:18:19;;;;;;;4.57;3.42;;;;;;;13.34;41.73;95376.94;4948174;28;20212;-73
2022/05/09 01:20:45;;;;;;;4.35;3.13;;;;;;;13.23;42.06;95372.75;4963552;28;20229;-73
2022/05/09 01:23:11;;;;;;;4.13;3.30;;;;;;;13.14;42.10;95370.22;4973883;28;20234;-73
2022/05/09 01:25:38;;;;;;;3.47;3.17;;;;;;;13.17;42.00;95370.72;4969326;28;20329;-71
2022/05/09 01:28:05;;;;;;;4.85;3.35;;;;;;;13.06;42.32;95376.28;4977906;28;20219;-73
2022/05/09 01:30:56;;;;;;;5.55;3.65;;;;;;;13.03;43.38;95376.63;4977767;28;20209;-73
2022/05/09 01:33:21;;;;;;;4.95;3.80;;;;;;;13.05;42.58;95369.38;4961501;28;20659;-73
2022/05/09 01:35:53;;;;;;;4.90;3.88;;;;;;;13.00;42.91;95366.38;4972090;28;20252;-73
2022/05/09 01:38:44;;;;;;;5.65;3.60;;;;;;;12.93;42.85;95371.44;4963682;28;20232;-73
2022/05/09 01:41:09;;;;;;;7.95;4.00;;;;;;;12.69;43.85;95369.50;4969703;28;20232;-73
2022/05/09 01:43:38;;;;;;;4.43;3.67;;;;;;;12.73;43.92;95370.84;4977572;28;20229;-74
2022/05/09 01:46:13;;;;;;;4.07;3.65;;;;;;;12.84;43.61;95377.69;4986397;28;20303;-74
2022/05/09 01:51:23;;;;;;;5.65;4.25;;;;;;;12.67;44.24;95387.31;4972851;28;20223;-74
2022/05/09 01:53:52;;;;;;;4.38;4.03;;;;;;;12.54;44.89;95384.25;4973027;28;20231;-74
2022/05/09 01:56:22;;;;;;;7.78;4.05;;;;;;;12.54;44.28;95381.63;4977903;28;20258;-74
2022/05/09 01:58:47;;;;;;;7.75;4.55;;;;;;;12.45;44.55;95375.44;4967683;28;20233;-73
2022/05/09 02:01:13;;;;;;;6.53;4.00;;;;;;;12.49;44.52;95378.63;4968177;28;20226;-74
2022/05/09 02:03:38;;;;;;;6.43;3.95;;;;;;;12.48;44.52;95369.03;4971555;28;20219;-74
2022/05/09 02:06:08;;;;;;;6.38;3.55;;;;;;;12.45;44.58;95374.63;4971274;28;20204;-75
2022/05/09 02:08:33;;;;;;;6.18;4.13;;;;;;;12.56;43.93;95371.72;4979694;28;20304;-75
2022/05/09 02:10:58;;;;;;;8.55;4.35;;;;;;;12.54;44.32;95379.81;4979385;28;20259;-75
2022/05/09 02:13:24;;;;;;;7.22;4.15;;;;;;;12.41;44.52;95381.19;4968611;28;20243;-74
2022/05/09 02:15:49;;;;;;;8.30;4.05;;;;;;;12.42;44.12;95382.84;4970345;28;20228;-75
2022/05/09 02:18:15;;;;;;;8.48;3.85;;;;;;;12.39;44.85;95388.44;4970620;28;20208;-75
2022/05/09 02:20:41;;;;;;;6.38;3.97;;;;;;;12.16;46.08;95388.91;4980481;28;20243;-74
2022/05/09 02:23:07;;;;;;;6.65;3.95;;;;;;;12.11;46.26;95385.91;4957781;28;20227;-73
2022/05/09 02:25:33;;;;;;;5.75;4.05;;;;;;;12.18;46.31;95392.22;4975602;28;20242;-74
2022/05/09 02:28:00;;;;;;;5.72;3.70;;;;;;;12.28;45.70;95387.69;4973540;28;20234;-74
2022/05/09 02:30:26;;;;;;;5.97;4.03;;;;;;;12.19;46.50;95393.91;4966593;28;20219;-73
2022/05/09 02:32:52;;;;;;;11.45;5.00;;;;;;;12.08;47.02;95394.09;4973101;28;20212;-72
2022/05/09 02:35:19;;;;;;;6.93;4.05;;;;;;;12.08;46.42;95396.75;4970862;28;20244;-73
2022/05/09 02:37:45;;;;;;;6.85;3.85;;;;;;;11.91;46.87;95393.97;4975788;28;20310;-74
2022/05/09 02:40:10;;;;;;;5.07;3.90;;;;;;;12.08;45.92;95394.09;4971433;28;20797;-74
2022/05/09 02:42:37;;;;;;;8.77;4.30;;;;;;;12.08;45.93;95399.38;4955712;28;20215;-66
2022/05/09 02:45:03;;;;;;;5.88;4.25;;;;;;;12.14;45.28;95388.25;4985604;28;20213;-74
2022/05/09 02:47:29;;;;;;;6.38;4.03;;;;;;;12.02;46.35;95402.63;4969372;28;20235;-72
2022/05/09 02:49:54;;;;;;;9.80;4.15;;;;;;;11.97;46.92;95394.34;4971922;28;20291;-72
2022/05/09 02:52:20;;;;;;;6.85;4.60;;;;;;;12.05;46.58;95403.16;4978601;28;20359;-72
2022/05/09 02:54:45;;;;;;;6.28;4.40;;;;;;;11.95;47.22;95404.19;4978387;28;20769;-72
2022/05/09 02:57:12;;;;;;;11.57;4.85;;;;;;;11.89;47.67;95398.56;4966496;28;20208;-72
2022/05/09 02:59:37;;;;;;;14.18;5.65;;;;;;;11.64;48.61;95401.91;4973283;28;20316;-73
2022/05/09 03:02:03;;;;;;;11.02;5.35;;;;;;;11.74;48.35;95405.31;4971314;28;20315;-73
2022/05/09 03:04:41;;;;;;;7.75;4.75;;;;;;;11.75;48.53;95401.69;4969673;28;20314;-74
2022/05/09 03:07:15;;;;;;;12.48;4.55;;;;;;;11.66;48.52;95405.22;4958250;28;20231;-73
2022/05/09 03:09:43;;;;;;;10.98;4.93;;;;;;;11.66;48.75;95402.59;4963727;28;20282;-72
2022/05/09 03:12:10;;;;;;;6.50;4.32;;;;;;;11.62;49.03;95403.84;4971665;28;20228;-73
2022/05/09 03:14:36;;;;;;;7.05;5.35;;;;;;;11.53;49.07;95420.56;4966458;28;20235;-72
2022/05/09 03:17:03;;;;;;;9.27;4.60;;;;;;;11.55;48.94;95426.50;4961708;28;20235;-75
2022/05/09 03:19:29;;;;;;;8.02;4.80;;;;;;;11.42;49.08;95422.41;4971719;28;20231;-72
2022/05/09 03:21:55;;;;;;;8.00;4.65;;;;;;;11.43;49.10;95431.13;4969450;28;20239;-72
2022/05/09 03:24:21;;;;;;;9.98;5.13;;;;;;;11.43;49.01;95426.69;4978627;28;20212;-73
2022/05/09 03:26:47;;;;;;;7.32;4.70;;;;;;;11.37;47.94;95429.91;4983628;28;20231;-73
2022/05/09 03:29:15;;;;;;;8.30;4.30;;;;;;;11.45;46.60;95435.28;4975477;28;20235;-72
2022/05/09 03:31:40;;;;;;;8.13;3.72;;;;;;;11.35;46.57;95434.50;4962536;28;20244;-75
2022/05/09 03:34:06;;;;;;;6.45;4.18;;;;;;;11.35;46.67;95437.13;4943768;28;20236;-74
2022/05/09 03:36:32;;;;;;;7.35;4.18;;;;;;;11.37;46.50;95435.19;4955410;28;20212;-74
2022/05/09 03:38:58;;;;;;;9.07;4.40;;;;;;;11.40;46.81;95428.78;4973612;28;20204;-73
2022/05/09 03:41:23;;;;;;;6.80;4.13;;;;;;;11.35;46.76;95439.75;4967573;28;20248;-72
2022/05/09 03:43:49;;;;;;;9.43;4.20;;;;;;;11.38;47.06;95438.63;4973294;28;20227;-74
2022/05/09 03:46:15;;;;;;;9.55;3.90;;;;;;;11.46;46.24;95434.28;4962689;28;20310;-72
2022/05/09 03:48:40;;;;;;;10.40;4.72;;;;;;;11.49;46.61;95441.06;4957829;28;20224;-72
2022/05/09 03:51:06;;;;;;;7.60;4.32;;;;;;;11.52;46.98;95432.03;4958211;28;20264;-73
2022/05/09 03:53:32;;;;;;;6.40;3.92;;;;;;;11.51;45.80;95430.41;4967547;28;20231;-72
2022/05/09 03:55:57;;;;;;;8.45;4.15;;;;;;;11.56;46.15;95436.88;4972473;28;20215;-72
2022/05/09 03:58:24;;;;;;;8.13;3.65;;;;;;;11.43;46.06;95436.41;4968385;28;20227;-72
2022/05/09 04:00:50;;;;;;;10.57;3.80;;;;;;;11.48;45.80;95436.78;4957120;28;20241;-71
2022/05/09 04:03:16;;;;;;;9.02;4.03;;;;;;;11.52;46.72;95434.69;4961264;28;20590;-72
2022/05/09 04:05:42;;;;;;;7.38;3.83;;;;;;;11.56;46.48;95442.16;4977619;28;20234;-70
2022/05/09 04:08:10;;;;;;;9.20;3.78;;;;;;;11.61;46.25;95431.19;4973902;28;20253;-70
2022/05/09 04:10:37;;;;;;;7.60;4.32;;;;;;;11.59;46.21;95433.13;4964782;28;20285;-70
2022/05/09 04:13:04;;;;;;;12.13;4.68;;;;;;;11.42;48.15;95435.56;4947835;28;20227;-71
2022/05/09 04:18:17;;;;;;;6.28;4.97;;;;;;;11.09;51.59;95438.75;4971539;28;20259;-72
2022/05/09 04:20:44;;;;;;;14.90;5.77;;;;;;;11.05;51.61;95443.50;4963312;28;20238;-73
2022/05/09 04:23:09;;;;;;;9.85;5.50;;;;;;;11.44;50.30;95441.53;4963877;28;20305;-73
2022/05/09 04:25:35;;;;;;;9.48;6.13;;;;;;;11.56;50.02;95444.78;4967154;28;20237;-75
2022/05/09 04:28:04;;;;;;;7.53;5.40;;;;;;;11.28;51.28;95441.34;4958932;28;20337;-72
2022/05/09 04:30:30;;;;;;;9.43;5.47;;;;;;;11.59;50.82;95446.28;4967220;28;20204;-73
2022/05/09 04:32:56;;;;;;;9.55;5.40;;;;;;;11.48;51.49;95449.97;4960791;28;20656;-74
2022/05/09 04:35:22;;;;;;;8.05;5.88;;;;;;;11.50;51.54;95444.56;4967745;28;20252;-71
2022/05/09 04:37:50;;;;;;;6.97;5.03;;;;;;;11.68;50.89;95448.03;4979396;28;20312;-72
2022/05/09 04:40:18;;;;;;;8.85;5.60;;;;;;;11.72;50.81;95449.41;4980207;28;20288;-74
2022/05/09 04:42:43;;;;;;;10.07;5.32;;;;;;;11.98;49.52;95452.19;4972977;28;20246;-74
2022/05/09 04:45:14;;;;;;;6.47;5.13;;;;;;;12.09;47.99;95448.50;4968435;28;20201;-75
2022/05/09 04:47:40;;;;;;;7.65;5.22;;;;;;;12.24;47.19;95454.91;4970160;28;20262;-73
2022/05/09 04:50:08;;;;;;;9.43;5.60;;;;;;;12.28;46.87;95455.44;4969704;28;20247;-73
2022/05/09 04:52:33;;;;;;;9.63;4.95;;;;;;;12.13;47.19;95453.31;4961093;28;20255;-73
2022/05/09 04:54:58;;;;;;;5.97;5.03;;;;;;;12.25;46.90;95453.09;4970007;28;20239;-74
2022/05/09 04:57:24;;;;;;;9.13;5.95;;;;;;;12.44;46.23;95457.38;4956963;28;20196;-74
2022/05/09 04:59:49;;;;;;;8.32;5.57;;;;;;;12.44;46.82;95449.47;4979890;28;20235;-73
2022/05/09 05:02:15;;;;;;;9.05;5.78;;;;;;;12.46;47.10;95464.16;4961957;28;20235;-74
2022/05/09 05:04:42;;;;;;;8.98;6.05;;;;;;;12.57;47.12;95460.44;4958418;28;20300;-75
2022/05/09 05:07:08;;;;;;;7.80;6.28;;;;;;;12.45;47.29;95457.19;4973299;28;20227;-73
2022/05/09 05:09:35;;;;;;;11.55;6.63;;;;;;;12.47;47.37;95454.44;4966249;28;20216;-70
2022/05/09 05:12:01;;;;;;;10.82;6.75;;;;;;;12.46;47.03;95460.69;4966778;28;20212;-73
2022/05/09 05:14:26;;;;;;;11.00;7.03;;;;;;;12.54;46.86;95466.03;4964298;28;20231;-73
2022/05/09 05:17:01;;;;;;;8.80;5.55;;;;;;;12.61;46.25;95459.16;4967457;28;20224;-73
2022/05/09 05:19:33;;;;;;;11.88;6.05;;;;;;;12.71;45.30;95457.25;4978623;28;20226;-75
2022/05/09 05:22:00;;;;;;;8.68;4.78;;;;;;;12.83;44.90;95459.63;4962562;28;20212;-73
2022/05/09 05:24:27;;;;;;;5.63;4.13;;;;;;;12.74;45.04;95458.75;4966037;28;20199;-71
2022/05/09 05:26:53;;;;;;;8.80;4.35;;;;;;;12.72;45.70;95463.34;4964392;28;20270;-74
2022/05/09 05:29:20;;;;;;;8.98;4.40;;;;;;;12.58;46.31;95457.63;4963346;28;20225;-74
2022/05/09 05:31:46;;;;;;;7.53;4.55;;;;;;;12.48;46.38;95458.72;4969026;28;20244;-75
2022/05/09 05:34:11;;;;;;;5.10;4.60;;;;;;;12.76;46.20;95457.63;4964766;28;20256;-72
2022/05/09 05:36:37;;;;;;;6.45;4.40;;;;;;;12.71;45.78;95459.88;4968869;28;20274;-71
2022/05/09 05:39:03;;;;;;;9.50;5.18;;;;;;;12.84;46.25;95456.84;4969116;28;20243;-73
2022/05/09 05:41:31;;;;;;;5.78;4.13;;;;;;;13.01;45.60;95455.13;4965720;28;20255;-73
2022/05/09 05:43:57;;;;;;;6.18;4.13;;;;;;;13.03;45.96;95461.91;4964531;28;20251;-73
2022/05/09 05:46:23;;;;;;;9.20;4.82;;;;;;;13.13;45.08;95463.63;4977312;28;20225;-74
2022/05/09 05:48:48;;;;;;;7.55;4.60;;;;;;;13.27;45.17;95460.44;4969279;28;20234;-74
2022/05/09 05:51:14;;;;;;;11.27;4.70;;;;;;;13.31;45.17;95456.50;4962579;28;20220;-71
2022/05/09 05:53:41;;;;;;;7.32;4.88;;;;;;;13.38;45.24;95461.97;4975504;28;20220;-72
2022/05/09 05:56:06;;;;;;;7.50;4.68;;;;;;;13.41;45.62;95456.38;4979530;28;20224;-72
2022/05/09 05:58:33;;;;;;;5.97;4.22;;;;;;;13.46;45.47;95456.72;4965849;28;20239;-73
2022/05/09 06:00:58;;;;;;;9.10;4.93;;;;;;;13.54;45.46;95461.22;4966852;28;20250;-71
2022/05/09 06:03:24;;;;;;;8.40;4.78;;;;;;;13.37;45.98;95455.88;4969499;28;20228;-74
2022/05/09 06:05:50;;;;;;;6.70;5.18;;;;;;;13.46;45.65;95459.34;4976415;28;20224;-73
2022/05/09 06:08:15;;;;;;;6.72;5.03;;;;;;;13.51;45.04;95454.44;4971121;28;20232;-70
2022/05/09 06:10:41;;;;;;;7.38;5.50;;;;;;;13.60;45.35;95456.09;4969036;28;20257;-72
2022/05/09 06:13:07;;;;;;;8.10;5.18;;;;;;;13.77;45.11;95462.28;4971790;28;20239;-72
2022/05/09 06:15:36;;;;;;;6.38;5.22;;;;;;;13.80;44.47;95461.16;4964743;28;20271;-72
2022/05/09 06:18:14;;;;;;;7.88;6.05;;;;;;;13.79;44.95;95460.31;4960351;28;20218;-72
2022/05/09 06:20:43;;;;;;;6.35;4.45;;;;;;;13.90;45.29;95467.94;4964094;28;20228;-68
2022/05/09 06:23:12;;;;;;;6.70;5.15;;;;;;;13.85;44.71;95466.78;4970271;28;20299;-71
2022/05/09 06:25:38;;;;;;;11.43;6.03;;;;;;;13.97;44.58;95468.13;4970139;28;20256;-73
2022/05/09 06:28:05;;;;;;;9.30;6.88;;;;;;;14.09;44.99;95464.19;4949055;28;20221;-69
2022/05/09 06:30:31;;;;;;;9.57;5.45;;;;;;;14.11;44.21;95459.56;4977058;28;20239;-69
2022/05/09 06:32:57;;;;;;;7.65;4.78;;;;;;;14.11;43.84;95458.72;4956928;28;20223;-70
2022/05/09 06:35:27;;;;;;;9.07;4.85;;;;;;;14.07;44.22;95471.44;4967374;28;20254;-69
2022/05/09 06:38:01;;;;;;;7.60;4.80;;;;;;;14.19;44.74;95461.38;4968191;28;20235;-68
2022/05/09 06:40:29;;;;;;;7.38;4.63;;;;;;;14.36;44.15;95469.34;4969323;28;20225;-69
2022/05/09 06:42:56;;;;;;;7.45;4.22;;;;;;;14.51;43.19;95457.97;4979729;28;20227;-68
2022/05/09 06:45:23;;;;;;;10.30;4.70;;;;;;;14.48;43.08;95463.56;4979646;28;20242;-69
2022/05/09 06:47:51;;;;;;;7.07;5.40;;;;;;;14.54;42.93;95457.66;4957672;28;20315;-68
2022/05/09 06:50:19;;;;;;;6.35;4.53;;;;;;;14.55;42.83;95461.94;4942756;28;20236;-70
2022/05/09 06:52:45;;;;;;;5.20;4.38;;;;;;;14.67;42.98;95461.59;4955896;28;20231;-70
2022/05/09 06:55:11;;;;;;;8.23;4.20;;;;;;;14.84;42.76;95462.44;4970651;28;20229;-68
2022/05/09 06:57:41;;;;;;;8.43;4.43;;;;;;;14.84;43.26;95465.09;4970954;28;20219;-72
2022/05/09 07:00:14;;;;;;;7.22;5.03;;;;;;;14.94;42.79;95455.97;4971475;28;20218;-70
2022/05/09 07:02:40;;;;;;;9.13;4.45;;;;;;;15.03;42.50;95459.44;4979941;28;20605;-70
2022/05/09 07:05:09;;;;;;;6.35;4.60;;;;;;;15.06;42.36;95455.63;4962150;28;20290;-75
2022/05/09 07:07:34;;;;;;;9.77;5.53;;;;;;;15.09;42.24;95453.44;4977182;28;20858;-65
2022/05/09 07:10:00;;;;;;;11.82;4.90;;;;;;;15.09;42.60;95449.97;4960696;28;20464;-69
2022/05/09 07:12:25;;;;;;;8.30;5.70;;;;;;;15.14;42.26;95453.78;4967630;28;20216;-67
2022/05/09 07:14:51;;;;;;;8.55;5.25;;;;;;;15.15;42.27;95458.06;4953689;28;20315;-66
2022/05/09 07:17:16;;;;;;;9.85;6.00;;;;;;;15.13;42.00;95456.56;4979799;28;20303;-66
2022/05/09 07:19:42;;;;;;;7.90;5.43;;;;;;;15.22;41.87;95451.09;4975758;28;20240;-64
2022/05/09 07:22:07;;;;;;;7.55;5.05;;;;;;;15.28;41.89;95454.91;4970360;28;20223;-61
2022/05/09 07:24:33;;;;;;;8.98;5.43;;;;;;;15.38;41.27;95455.53;4968975;28;20212;-66
2022/05/09 07:27:02;;;;;;;7.65;5.93;;;;;;;15.48;40.74;95454.53;4968805;28;20212;-69
2022/05/09 07:29:27;;;;;;;6.32;4.85;;;;;;;15.56;40.82;95451.84;4962770;28;20295;-65
2022/05/09 07:31:53;;;;;;;9.05;5.15;;;;;;;15.56;41.32;95460.63;4969960;28;20231;-63
2022/05/09 07:34:19;;;;;;;7.05;4.97;;;;;;;15.69;41.20;95453.94;4967135;28;20227;-67
2022/05/09 07:36:45;;;;;;;10.73;4.97;;;;;;;15.73;40.95;95457.91;4970128;28;20246;-66
2022/05/09 07:39:14;;;;;;;12.23;5.07;;;;;;;15.81;40.59;95444.63;4978797;28;20205;-63
2022/05/09 07:41:39;;;;;;;7.30;4.70;;;;;;;15.97;40.17;95446.38;4968920;28;20224;-66
2022/05/09 07:44:05;;;;;;;5.30;4.38;;;;;;;15.98;39.84;95446.16;4964180;28;20954;-67
2022/05/09 07:46:33;;;;;;;8.25;4.70;;;;;;;16.07;40.40;95441.66;4963960;28;20224;-65
2022/05/09 07:48:59;;;;;;;7.30;4.07;;;;;;;16.29;37.77;95448.00;4988467;28;20303;-65
2022/05/09 07:51:25;;;;;;;4.70;3.25;;;;;;;16.35;38.05;95439.31;4982238;28;20311;-65
2022/05/09 07:53:51;;;;;;;6.82;3.50;;;;;;;16.43;37.94;95443.75;4954704;28;20255;-66
2022/05/09 07:56:17;;;;;;;5.30;3.72;;;;;;;16.34;37.38;95439.50;4956646;28;20220;-66
2022/05/09 07:58:43;;;;;;;7.78;4.25;;;;;;;16.39;37.50;95451.25;4962290;28;20225;-62
2022/05/09 08:01:08;;;;;;;4.50;3.22;;;;;;;16.37;37.89;95447.94;4955242;28;20224;-63
2022/05/09 08:03:37;;;;;;;6.75;3.60;;;;;;;16.40;38.51;95449.41;4947988;28;20201;-65
2022/05/09 08:06:03;;;;;;;6.10;3.60;;;;;;;16.59;37.26;95450.75;4965003;28;20280;-67
2022/05/09 08:08:30;;;;;;;6.22;2.88;;;;;;;16.67;37.27;95453.34;4964153;28;20229;-68
2022/05/09 08:11:00;;;;;;;5.05;3.22;;;;;;;16.75;37.22;95448.78;4966565;28;20225;-66
2022/05/09 08:13:30;;;;;;;4.25;2.55;;;;;;;16.83;35.96;95447.09;4967408;28;20224;-68
2022/05/09 08:15:56;;;;;;;4.07;2.97;;;;;;;16.73;37.25;95444.66;4963083;28;20247;-66
2022/05/09 08:18:24;;;;;;;7.45;2.90;;;;;;;16.87;37.13;95446.56;4960631;28;20212;-66
2022/05/09 08:20:50;;;;;;;4.75;2.88;;;;;;;16.92;37.81;95446.84;4978775;28;20235;-62
2022/05/09 08:23:18;;;;;;;4.60;3.03;;;;;;;16.95;37.12;95443.00;4976219;28;20228;-62
2022/05/09 08:25:48;;;;;;;5.00;3.00;;;;;;;17.03;36.58;95442.94;4964361;28;20252;-62
2022/05/09 08:28:15;;;;;;;9.40;5.00;;;;;;;17.20;37.08;95441.75;4978311;28;20223;-63
2022/05/09 08:30:40;;;;;;;7.72;4.03;;;;;;;17.28;37.50;95454.13;4971727;28;20214;-63
2022/05/09 08:33:10;;;;;;;7.65;3.40;;;;;;;17.30;36.86;95444.13;4975279;28;20220;-64
2022/05/09 08:35:35;;;;;;;6.22;3.00;;;;;;;17.35;36.57;95446.25;4974219;28;20248;-64
2022/05/09 08:38:02;;;;;;;5.65;2.65;;;;;;;17.44;35.86;95444.31;4964469;28;20239;-61
2022/05/09 08:40:35;;;;;;;6.85;2.70;;;;;;;17.38;35.38;95454.69;4977222;28;20224;-67
2022/05/09 08:43:31;;;;;;;7.53;2.92;;;;;;;17.42;35.98;95449.81;4963961;28;20251;-67
2022/05/09 08:46:36;;;;;;;3.35;2.40;;;;;;;17.58;37.58;95444.31;4961671;28;20228;-67
2022/05/09 08:49:26;;;;;;;4.53;3.28;;;;;;;17.57;34.62;95442.66;4960631;28;20242;-63
2022/05/09 08:52:10;;;;;;;4.55;2.63;;;;;;;17.59;35.87;95443.31;4974211;28;20291;-64
2022/05/09 08:54:36;;;;;;;5.10;2.70;;;;;;;17.63;36.42;95443.75;4974642;28;20212;-64
2022/05/09 08:57:11;;;;;;;4.57;2.55;;;;;;;17.73;36.33;95438.16;4964234;28;20291;-64
2022/05/09 08:59:52;;;;;;;3.47;2.45;;;;;;;17.72;35.10;95439.16;4969911;28;20235;-64
2022/05/09 09:03:11;;;;;;;5.78;3.10;;;;;;;17.86;35.11;95438.34;4968654;28;20228;-64
2022/05/09 09:05:39;;;;;;;5.30;3.00;;;;;;;17.82;36.62;95434.41;4958403;28;20247;-61
2022/05/09 09:08:14;;;;;;;4.22;2.63;;;;;;;17.86;34.56;95438.34;4965246;28;20268;-62
2022/05/09 09:11:07;;;;;;;3.95;2.55;;;;;;;17.83;33.46;95434.22;4975696;28;20238;-61
2022/05/09 09:13:58;;;;;;;7.40;2.63;;;;;;;17.86;33.54;95435.69;4969098;28;20261;-62
2022/05/09 09:16:29;;;;;;;3.22;2.40;;;;;;;17.97;34.36;95432.53;4936659;28;20311;-62
2022/05/09 09:19:04;;;;;;;4.22;2.50;;;;;;;18.11;33.02;95425.53;4933000;28;20232;-61
2022/05/09 09:22:01;;;;;;;6.40;2.60;;;;;;;18.28;31.23;95432.28;4924277;28;20227;-61
2022/05/09 09:24:59;;;;;;;3.83;2.53;;;;;;;18.26;32.84;95436.97;4951947;28;20244;-62
2022/05/09 09:27:42;;;;;;;3.90;2.40;;;;;;;18.46;32.61;95429.16;4951543;28;20314;-65
2022/05/09 09:30:11;;;;;;;2.88;1.75;;;;;;;18.47;32.42;95427.31;4964591;28;20228;-62
2022/05/09 09:32:43;;;;;;;3.15;2.70;;;;;;;18.67;31.12;95420.34;4966405;28;20239;-62
2022/05/09 09:35:18;;;;;;;2.92;2.03;;;;;;;18.91;31.19;95420.97;4966627;28;20359;-62
2022/05/09 09:37:53;;;;;;;4.90;2.20;;;;;;;18.92;31.39;95420.78;4964832;28;20287;-62
2022/05/09 09:40:18;;;;;;;5.38;2.50;;;;;;;19.17;28.65;95420.34;4917700;28;20236;-62
2022/05/09 09:42:44;;;;;;;4.97;2.10;;;;;;;19.28;27.18;95413.63;4915750;29;20367;-61
2022/05/09 09:45:30;;;;;;;4.22;1.88;;;;;;;19.51;28.96;95416.00;4928011;29;20289;-65
2022/05/09 09:48:12;;;;;;;3.47;2.35;;;;;;;19.60;28.71;95410.31;4927980;29;20224;-65
2022/05/09 09:51:13;;;;;;;3.63;2.05;;;;;;;19.73;27.17;95412.25;4927983;29;20233;-65
2022/05/09 09:53:52;;;;;;;2.75;1.90;;;;;;;19.92;24.79;95402.69;4947746;28;20367;-65
2022/05/09 09:56:20;;;;;;;3.20;1.80;;;;;;;19.91;23.33;95410.88;4976290;28;20231;-65
2022/05/09 09:58:46;;;;;;;3.90;2.35;;;;;;;19.76;23.48;95414.53;4971365;28;20233;-65
2022/05/09 10:01:14;;;;;;;4.47;2.00;;;;;;;19.77;23.81;95408.16;4972988;28;20216;-66
2022/05/09 10:03:46;;;;;;;5.40;1.90;;;;;;;19.97;24.97;95410.91;4975307;28;20208;-66
2022/05/09 10:06:21;;;;;;;2.92;1.77;;;;;;;19.93;24.92;95412.31;4981562;28;20212;-66
2022/05/09 10:08:59;;;;;;;3.05;1.90;;;;;;;20.12;24.27;95394.72;4983248;28;20219;-66
2022/05/09 10:11:28;;;;;;;7.07;1.95;;;;;;;20.39;25.25;95400.09;4964728;28;20227;-66
2022/05/09 10:13:57;;;;;;;4.53;2.17;;;;;;;20.60;24.50;95399.13;4971208;28;20278;-66
2022/05/09 10:16:38;;;;;;;4.07;2.58;;;;;;;20.77;24.31;95404.88;4973220;28;20231;-66
2022/05/09 10:19:08;;;;;;;2.75;1.90;;;;;;;20.82;22.10;95399.75;4983232;28;20235;-66
2022/05/09 10:24:51;;;;;;;3.53;2.10;;;;;;;21.16;22.62;95404.03;4963289;28;20216;-66
2022/05/09 10:27:28;;;;;;;3.28;1.83;;;;;;;21.24;20.64;95393.13;4978509;28;20224;-66
2022/05/09 10:29:58;;;;;;;3.08;1.65;;;;;;;21.17;19.63;95387.00;4978147;28;20254;-66
2022/05/09 10:32:29;;;;;;;3.03;1.60;;;;;;;21.32;20.12;95389.41;4963368;28;20229;-66
2022/05/09 10:35:05;;;;;;;4.10;1.75;;;;;;;21.42;20.32;95389.84;4962290;28;20248;-66
2022/05/09 10:37:43;;;;;;;4.45;4.05;;;;;;;21.62;22.28;95388.94;4965743;28;20343;-64
2022/05/09 10:40:16;;;;;;;5.63;1.70;;;;;;;21.73;22.11;95385.59;4974544;28;20364;-63
2022/05/09 10:42:47;;;;;;;5.68;2.20;;;;;;;21.78;22.87;95391.97;4964246;28;20279;-63
2022/05/09 10:45:25;;;;;;;7.28;2.83;;;;;;;21.95;21.05;95394.16;4981833;28;20298;-63
2022/05/09 10:48:26;;;;;;;4.13;2.42;;;;;;;22.15;22.11;95386.03;4965995;28;20231;-65
2022/05/09 10:51:12;;;;;;;6.03;1.88;;;;;;;22.17;21.23;95381.28;4948113;28;20232;-64
2022/05/09 10:53:55;;;;;;;3.17;1.75;;;;;;;22.42;22.84;95382.16;4930563;28;20292;-68
2022/05/09 10:56:26;;;;;;;2.67;2.17;;;;;;;22.60;20.56;95372.56;4949665;28;20842;-61
2022/05/09 10:59:27;;;;;;;2.50;2.10;;;;;;;22.61;19.83;95384.91;4946588;28;20275;-64
2022/05/09 11:02:05;;;;;;;4.63;1.85;;;;;;;22.75;17.45;95377.59;4895113;29;20247;-65
2022/05/09 11:04:32;;;;;;;3.58;1.65;;;;;;;22.68;18.51;95372.28;4890804;29;20218;-65
2022/05/09 11:07:25;;;;;;;2.08;1.73;;;;;;;22.67;18.37;95373.34;4891264;29;20222;-64
2022/05/09 11:10:22;;;;;;;4.90;1.90;;;;;;;22.93;20.57;95380.31;4875463;29;20297;-64
2022/05/09 11:13:19;;;;;;;3.80;2.03;;;;;;;22.96;18.71;95369.22;4871666;29;20231;-64
2022/05/09 11:16:23;;;;;;;4.57;1.70;;;;;;;23.03;21.04;95369.13;4886224;29;20318;-62
2022/05/09 11:18:54;;;;;;;2.03;1.80;;;;;;;23.38;21.90;95373.94;4822982;29;20232;-64
2022/05/09 11:21:33;;;;;;;3.05;1.60;;;;;;;23.07;16.77;95365.00;4821484;29;20225;-63
2022/05/09 11:24:37;;;;;;;3.05;1.67;;;;;;;23.45;19.13;95364.78;4802094;29;20248;-63
2022/05/09 11:27:14;;;;;;;3.17;1.80;;;;;;;23.76;18.43;95360.31;4791672;29;20245;-63
2022/05/09 11:30:14;;;;;;;2.55;1.35;;;;;;;23.89;18.63;95362.00;4788981;29;20769;-63
2022/05/09 11:32:43;;;;;;;4.45;2.08;;;;;;;23.51;19.13;95345.09;4801532;29;20317;-64
2022/05/09 11:35:36;;;;;;;1.88;1.45;;;;;;;23.75;17.64;95351.44;4801497;29;20373;-63
2022/05/09 11:38:26;;;;;;;1.90;1.70;;;;;;;24.19;21.04;95344.06;4873237;29;20237;-63
2022/05/09 11:41:16;;;;;;;4.43;1.80;;;;;;;24.48;17.22;95346.94;4876936;29;20622;-65
2022/05/09 11:44:14;;;;;;;2.92;1.70;;;;;;;24.64;17.26;95348.97;4888409;29;20234;-66
2022/05/09 11:47:08;;;;;;;3.13;1.80;;;;;;;24.79;19.57;95350.38;4871695;29;20628;-65
2022/05/09 11:50:01;;;;;;;1.98;1.40;;;;;;;25.09;16.63;95353.78;4928124;28;20238;-66
2022/05/09 11:52:47;;;;;;;3.58;1.85;;;;;;;25.09;15.85;95343.03;4966465;28;20280;-66
2022/05/09 11:55:15;;;;;;;1.50;1.35;;;;;;;24.62;14.52;95340.31;4961832;28;20235;-66
2022/05/09 11:57:44;;;;;;;2.40;1.50;;;;;;;24.48;13.75;95338.88;4974164;28;20329;-66
2022/05/09 12:00:33;;;;;;;2.63;1.60;;;;;;;23.91;13.86;95327.69;4959469;28;20215;-66